Time;durP1;ratioP1;P1;durP2;ratioP2;P2;SDS_P1;SDS_P2;PMS_P1;PMS_P2;Temp;Humidity;BMP_temperature;BMP_pressure;BME280_temperature;BME280_humidity;BME280_pressure;Samples;Min_cycle;Max_cycle;Signal;HPM_P1;HPM_P2
2022/07/21 00:00:03;;;;;;;12.10;11.10;;;24.20;99.90;;;;;;5051021;28;20646;-90
2022/07/21 00:02:30;;;;;;;12.33;11.27;;;24.20;99.90;;;;;;5049360;28;20979;-90
2022/07/21 00:04:57;;;;;;;12.20;11.30;;;24.20;99.90;;;;;;5046104;28;20628;-91
2022/07/21 00:07:25;;;;;;;12.87;11.77;;;24.20;99.90;;;;;;5049982;28;20633;-93
2022/07/21 00:09:53;;;;;;;13.33;12.40;;;24.20;99.90;;;;;;5055685;28;20653;-96
2022/07/21 00:12:20;;;;;;;13.70;12.60;;;24.20;99.90;;;;;;5052349;28;20701;-94
2022/07/21 00:14:47;;;;;;;13.10;11.90;;;24.20;99.90;;;;;;5050679;28;20626;-93
2022/07/21 00:17:15;;;;;;;14.20;12.90;;;24.10;99.90;;;;;;5042180;28;20642;-92
2022/07/21 00:19:49;;;;;;;14.00;12.90;;;24.10;99.90;;;;;;5053502;28;20652;-95
2022/07/21 00:22:16;;;;;;;12.03;10.93;;;24.10;99.90;;;;;;5051823;28;20640;-96
2022/07/21 00:24:45;;;;;;;12.93;11.73;;;24.10;99.90;;;;;;5052879;28;21149;-93
2022/07/21 00:27:12;;;;;;;11.73;10.87;;;24.10;99.90;;;;;;5052505;28;20964;-93
2022/07/21 00:29:39;;;;;;;11.20;10.20;;;24.10;99.90;;;;;;5050191;28;20672;-95
2022/07/21 00:32:06;;;;;;;14.30;13.10;;;24.10;99.90;;;;;;5049217;28;20672;-92
2022/07/21 00:34:35;;;;;;;13.87;12.77;;;24.10;99.90;;;;;;5050854;28;20649;-93
2022/07/21 00:37:02;;;;;;;13.83;12.73;;;24.10;99.90;;;;;;5049865;28;20630;-96
2022/07/21 00:39:29;;;;;;;11.70;10.70;;;24.10;99.90;;;;;;5050676;28;20622;-95
2022/07/21 00:41:57;;;;;;;13.00;12.20;;;24.10;99.90;;;;;;5048163;28;20638;-92
2022/07/21 00:44:26;;;;;;;12.30;11.30;;;24.00;99.90;;;;;;5043520;28;20975;-91
2022/07/21 00:46:54;;;;;;;12.93;11.77;;;24.10;99.90;;;;;;5058703;28;20625;-95
2022/07/21 00:49:21;;;;;;;11.00;10.13;;;24.10;99.90;;;;;;5048108;28;20626;-93
2022/07/21 00:51:49;;;;;;;12.63;11.63;;;24.10;99.90;;;;;;5056028;28;20648;-95
2022/07/21 00:54:17;;;;;;;13.73;12.27;;;24.10;99.90;;;;;;5048916;28;20668;-95
2022/07/21 00:56:44;;;;;;;12.53;11.33;;;24.10;99.90;;;;;;5050916;28;20632;-94
2022/07/21 00:59:13;;;;;;;13.73;12.53;;;24.10;99.90;;;;;;5049484;28;20625;-91
2022/07/21 01:01:40;;;;;;;13.47;12.47;;;24.10;99.90;;;;;;5048314;28;20630;-92
2022/07/21 01:04:06;;;;;;;14.60;13.33;;;24.10;99.90;;;;;;5050954;28;20618;-94
2022/07/21 01:06:33;;;;;;;13.37;11.97;;;24.10;99.90;;;;;;5046617;28;20616;-93
2022/07/21 01:09:00;;;;;;;13.23;12.17;;;24.10;99.90;;;;;;5049025;28;20630;-94
2022/07/21 01:11:28;;;;;;;13.70;12.60;;;24.00;99.90;;;;;;5049954;28;20647;-94
2022/07/21 01:13:55;;;;;;;12.30;11.40;;;24.00;99.90;;;;;;5047435;28;20662;-94
2022/07/21 01:16:23;;;;;;;13.17;12.07;;;24.00;99.90;;;;;;5055817;28;20632;-94
2022/07/21 01:18:52;;;;;;;14.07;12.97;;;24.00;99.90;;;;;;5052084;28;20700;-94
2022/07/21 01:21:30;;;;;;;13.23;12.13;;;24.00;99.90;;;;;;5051222;28;20688;-94
2022/07/21 01:23:58;;;;;;;12.37;11.47;;;24.00;99.90;;;;;;5051472;28;20613;-95
2022/07/21 01:26:25;;;;;;;13.97;12.77;;;23.90;99.90;;;;;;5054574;28;20618;-94
2022/07/21 01:28:52;;;;;;;12.73;11.83;;;24.00;99.90;;;;;;5054756;28;20626;-92
2022/07/21 01:31:19;;;;;;;14.13;12.80;;;24.00;99.90;;;;;;5049316;28;20658;-93
2022/07/21 01:33:46;;;;;;;14.40;13.20;;;24.00;99.90;;;;;;5053362;28;20681;-93
2022/07/21 01:36:13;;;;;;;15.70;14.40;;;24.00;99.90;;;;;;5053580;28;20644;-94
2022/07/21 01:41:33;;;;;;;15.30;14.30;;;24.00;99.90;;;;;;5052823;28;20660;-94
2022/07/21 01:44:02;;;;;;;14.53;13.33;;;24.00;99.90;;;;;;5054360;28;20609;-94
2022/07/21 01:46:30;;;;;;;16.17;14.90;;;23.90;99.90;;;;;;5053116;28;20614;-91
2022/07/21 01:48:57;;;;;;;13.37;12.30;;;23.90;99.90;;;;;;5050383;28;20625;-93
2022/07/21 01:51:24;;;;;;;14.20;13.00;;;23.90;99.90;;;;;;5052293;28;20703;-91
2022/07/21 01:53:54;;;;;;;14.70;13.70;;;23.90;99.90;;;;;;5051422;28;20665;-93
2022/07/21 01:56:21;;;;;;;15.17;14.17;;;23.80;99.90;;;;;;5050059;28;20660;-92
2022/07/21 01:58:49;;;;;;;13.57;12.37;;;23.60;99.90;;;;;;5051157;28;21044;-92
2022/07/21 02:01:17;;;;;;;13.20;12.10;;;23.60;99.90;;;;;;5053572;28;20657;-93
2022/07/21 02:03:44;;;;;;;12.77;11.67;;;23.60;99.90;;;;;;5050633;28;20625;-90
2022/07/21 02:06:11;;;;;;;12.70;11.70;;;23.70;99.90;;;;;;5050440;28;20652;-89
2022/07/21 02:08:38;;;;;;;11.87;10.97;;;23.70;99.90;;;;;;5049822;28;20728;-89
2022/07/21 02:11:07;;;;;;;12.53;11.53;;;23.70;99.90;;;;;;5043303;28;20656;-87
2022/07/21 02:13:33;;;;;;;12.00;11.10;;;23.70;99.90;;;;;;5047267;28;20771;-88
2022/07/21 02:16:00;;;;;;;12.33;11.30;;;23.80;99.90;;;;;;5047300;28;20624;-89
2022/07/21 02:18:27;;;;;;;11.80;10.93;;;23.80;99.90;;;;;;5045589;28;21165;-88
2022/07/21 02:20:55;;;;;;;12.10;10.90;;;23.80;99.90;;;;;;5047617;28;20650;-88
2022/07/21 02:23:22;;;;;;;10.90;10.00;;;23.80;99.90;;;;;;5044600;28;20681;-89
2022/07/21 02:25:49;;;;;;;11.17;10.27;;;23.90;99.90;;;;;;5047863;28;20642;-89
2022/07/21 02:28:18;;;;;;;11.10;10.20;;;23.80;99.90;;;;;;5046112;28;20669;-88
2022/07/21 02:30:45;;;;;;;11.53;10.00;;;23.90;99.90;;;;;;5050026;28;20669;-92
2022/07/21 02:33:12;;;;;;;11.30;10.40;;;23.90;99.90;;;;;;5049640;28;21048;-93
2022/07/21 02:35:39;;;;;;;12.37;11.03;;;23.90;99.90;;;;;;5050122;28;20987;-91
2022/07/21 02:38:09;;;;;;;10.57;9.67;;;23.90;99.90;;;;;;5051609;28;20721;-92
2022/07/21 02:40:36;;;;;;;11.03;9.93;;;23.80;99.90;;;;;;5047947;28;20660;-92
2022/07/21 02:43:05;;;;;;;12.30;10.20;;;23.80;99.90;;;;;;5050612;28;20685;-92
2022/07/21 02:45:33;;;;;;;11.40;10.50;;;23.80;99.90;;;;;;5050894;28;20633;-92
2022/07/21 02:48:02;;;;;;;11.93;11.13;;;23.80;99.90;;;;;;5031811;28;20618;-93
2022/07/21 02:50:31;;;;;;;13.00;12.00;;;23.80;99.90;;;;;;5051367;28;20656;-93
2022/07/21 02:53:00;;;;;;;11.70;10.70;;;23.80;99.90;;;;;;5051310;28;20658;-93
2022/07/21 02:55:27;;;;;;;11.57;10.63;;;23.80;99.90;;;;;;5049857;28;20649;-93
2022/07/21 02:58:05;;;;;;;11.70;10.80;;;23.80;99.90;;;;;;5046565;28;20633;-90
2022/07/21 03:00:35;;;;;;;11.17;10.07;;;23.80;99.90;;;;;;5052082;28;20653;-90
2022/07/21 03:03:01;;;;;;;11.40;10.60;;;23.80;99.90;;;;;;5045854;28;20622;-89
2022/07/21 03:05:28;;;;;;;9.60;8.90;;;23.70;99.90;;;;;;5047620;28;21011;-90
2022/07/21 03:07:55;;;;;;;10.73;9.77;;;23.70;99.90;;;;;;5045363;28;20632;-92
2022/07/21 03:10:22;;;;;;;9.73;9.03;;;23.80;99.90;;;;;;5048638;28;21236;-92
2022/07/21 03:12:49;;;;;;;9.77;9.07;;;23.80;99.90;;;;;;5051248;28;20727;-92
2022/07/21 03:15:16;;;;;;;9.63;8.83;;;23.70;99.90;;;;;;5053670;28;20630;-94
2022/07/21 03:17:44;;;;;;;9.40;8.70;;;23.70;99.90;;;;;;5054396;28;20642;-94
2022/07/21 03:20:12;;;;;;;9.73;8.67;;;23.70;99.90;;;;;;5051717;28;20649;-94
2022/07/21 03:22:39;;;;;;;9.30;8.43;;;23.70;99.90;;;;;;5052997;28;20680;-94
2022/07/21 03:25:07;;;;;;;10.10;9.20;;;23.70;99.90;;;;;;5051579;28;20638;-94
2022/07/21 03:27:36;;;;;;;8.93;8.13;;;23.70;99.90;;;;;;5049536;28;20644;-94
2022/07/21 03:30:04;;;;;;;8.83;8.03;;;23.70;99.90;;;;;;5051433;28;20707;-95
2022/07/21 03:32:31;;;;;;;8.80;8.17;;;23.70;99.90;;;;;;5051779;28;20647;-93
2022/07/21 03:34:59;;;;;;;8.30;7.70;;;23.70;99.90;;;;;;5051663;28;20638;-95
2022/07/21 03:37:26;;;;;;;8.37;7.57;;;23.70;99.90;;;;;;5050568;28;20629;-94
2022/07/21 03:39:53;;;;;;;8.00;7.33;;;23.70;99.90;;;;;;5053562;28;20645;-94
2022/07/21 03:42:20;;;;;;;8.17;7.57;;;23.60;99.90;;;;;;5050184;28;20629;-94
2022/07/21 03:44:47;;;;;;;8.20;7.60;;;23.70;99.90;;;;;;5051637;28;21016;-93
2022/07/21 03:47:14;;;;;;;7.83;7.07;;;23.70;99.90;;;;;;5049645;28;21149;-93
2022/07/21 03:49:41;;;;;;;8.33;6.40;;;23.70;99.90;;;;;;5050983;28;20657;-90
2022/07/21 03:52:10;;;;;;;8.40;7.43;;;23.70;99.90;;;;;;5044154;28;21225;-84
2022/07/21 03:54:37;;;;;;;8.37;7.73;;;23.70;99.90;;;;;;5054371;28;20668;-84
2022/07/21 03:57:04;;;;;;;9.33;8.43;;;23.20;99.90;;;;;;5054359;28;20972;-84
2022/07/21 03:59:31;;;;;;;9.20;8.30;;;22.90;99.90;;;;;;5056112;28;20670;-84
2022/07/21 04:01:58;;;;;;;8.97;7.30;;;22.60;99.90;;;;;;5053606;28;20629;-86
2022/07/21 04:04:25;;;;;;;9.23;8.60;;;22.40;99.90;;;;;;5043571;28;20643;-86
2022/07/21 04:06:52;;;;;;;9.80;9.00;;;22.30;99.90;;;;;;5051416;28;20637;-85
2022/07/21 04:09:20;;;;;;;8.30;7.50;;;22.00;99.90;;;;;;5051742;28;21169;-84
2022/07/21 04:11:47;;;;;;;7.73;7.03;;;22.10;99.90;;;;;;5052426;28;20626;-84
2022/07/21 04:14:14;;;;;;;9.00;8.50;;;22.20;99.90;;;;;;5042657;28;21452;-84
2022/07/21 04:16:41;;;;;;;10.33;8.77;;;22.20;99.90;;;;;;5045515;28;20613;-84
2022/07/21 04:19:08;;;;;;;10.80;9.70;;;22.20;99.90;;;;;;5048802;28;20641;-84
2022/07/21 04:21:35;;;;;;;9.70;8.80;;;22.10;99.90;;;;;;5046842;28;20988;-84
2022/07/21 04:24:02;;;;;;;10.37;9.53;;;22.10;99.90;;;;;;5045667;28;20610;-84
2022/07/21 04:26:30;;;;;;;10.93;10.23;;;22.00;99.90;;;;;;5043531;28;20663;-85
2022/07/21 04:28:57;;;;;;;9.83;9.13;;;22.00;99.90;;;;;;5044639;28;20701;-85
2022/07/21 04:31:24;;;;;;;9.70;8.70;;;22.00;99.90;;;;;;5045980;28;20749;-85
2022/07/21 04:33:50;;;;;;;9.57;8.57;;;21.90;99.90;;;;;;5045575;28;20658;-84
2022/07/21 04:36:17;;;;;;;7.40;6.70;;;21.80;99.90;;;;;;5044479;28;21008;-84
2022/07/21 04:38:44;;;;;;;8.07;7.47;;;21.80;99.90;;;;;;5045971;28;20634;-84
2022/07/21 04:41:11;;;;;;;10.27;9.27;;;21.80;99.90;;;;;;5045619;28;20724;-86
2022/07/21 04:43:39;;;;;;;9.30;8.20;;;21.80;99.90;;;;;;5043566;28;20632;-84
2022/07/21 04:46:07;;;;;;;11.30;10.37;;;21.70;99.90;;;;;;5045112;28;20633;-84
2022/07/21 04:48:34;;;;;;;12.00;9.17;;;21.60;99.90;;;;;;5042647;28;20652;-84
2022/07/21 04:51:01;;;;;;;8.40;7.60;;;20.70;99.90;;;;;;5046059;28;20653;-85
2022/07/21 04:53:27;;;;;;;8.53;7.67;;;20.70;99.90;;;;;;5046442;28;20669;-84
2022/07/21 04:55:54;;;;;;;7.43;6.73;;;20.90;99.90;;;;;;5043682;28;20635;-85
2022/07/21 04:58:21;;;;;;;8.33;7.57;;;21.20;99.90;;;;;;5044745;28;20634;-84
2022/07/21 05:00:49;;;;;;;8.47;7.77;;;21.30;99.90;;;;;;5045229;28;20641;-84
2022/07/21 05:03:16;;;;;;;12.10;10.30;;;21.40;99.90;;;;;;5044805;28;20629;-85
2022/07/21 05:05:43;;;;;;;10.23;9.27;;;21.40;99.90;;;;;;5046266;28;20626;-85
2022/07/21 05:08:10;;;;;;;10.73;9.83;;;21.50;99.90;;;;;;5046572;28;20633;-85
2022/07/21 05:10:37;;;;;;;10.17;8.27;;;21.60;99.90;;;;;;5041722;28;20752;-85
2022/07/21 05:13:04;;;;;;;9.67;9.07;;;21.60;99.90;;;;;;5047051;28;20630;-85
2022/07/21 05:15:31;;;;;;;11.20;10.30;;;21.70;99.90;;;;;;5045106;28;20644;-86
2022/07/21 05:17:59;;;;;;;9.80;8.20;;;21.70;99.90;;;;;;5045881;28;20641;-85
2022/07/21 05:20:26;;;;;;;9.17;8.40;;;21.40;99.90;;;;;;5046318;28;20992;-85
2022/07/21 05:22:53;;;;;;;11.03;9.90;;;20.90;99.90;;;;;;5045434;28;20630;-85
2022/07/21 05:25:20;;;;;;;13.90;9.10;;;19.90;99.90;;;;;;5044742;28;21196;-84
2022/07/21 05:27:46;;;;;;;10.30;9.50;;;19.90;99.90;;;;;;5040342;28;20858;-83
2022/07/21 05:30:14;;;;;;;10.30;8.93;;;20.40;99.90;;;;;;5043174;28;20752;-82
2022/07/21 05:32:41;;;;;;;9.63;8.67;;;20.60;99.90;;;;;;5043022;28;20641;-82
2022/07/21 05:35:11;;;;;;;11.00;10.00;;;20.70;99.90;;;;;;5042972;28;20695;-82
2022/07/21 05:37:38;;;;;;;9.20;8.30;;;20.80;99.90;;;;;;5042191;28;20695;-83
2022/07/21 05:40:06;;;;;;;10.93;9.93;;;20.90;99.90;;;;;;5042539;28;20788;-82
2022/07/21 05:42:33;;;;;;;9.77;8.87;;;20.90;99.90;;;;;;5042947;28;20661;-83
2022/07/21 05:45:00;;;;;;;13.27;12.13;;;20.90;99.90;;;;;;5045454;28;20976;-83
2022/07/21 05:47:27;;;;;;;13.10;12.03;;;21.10;99.90;;;;;;5043218;28;20658;-83
2022/07/21 05:49:54;;;;;;;10.63;9.63;;;21.20;99.90;;;;;;5045502;28;20652;-82
2022/07/21 05:52:22;;;;;;;10.83;9.83;;;21.30;99.90;;;;;;5046591;28;21326;-82
2022/07/21 05:54:49;;;;;;;11.77;10.80;;;21.40;99.90;;;;;;5044332;28;20676;-82
2022/07/21 05:57:17;;;;;;;10.47;9.50;;;21.50;99.90;;;;;;5045470;28;20626;-82
2022/07/21 05:59:43;;;;;;;8.57;7.80;;;21.60;99.90;;;;;;5044669;28;20996;-82
2022/07/21 06:02:11;;;;;;;11.73;10.47;;;21.60;99.90;;;;;;5042965;28;20622;-82
2022/07/21 06:04:38;;;;;;;10.87;9.90;;;21.70;99.90;;;;;;5042183;28;21125;-82
2022/07/21 06:07:05;;;;;;;12.20;10.43;;;21.60;99.90;;;;;;5043426;28;21160;-83
2022/07/21 06:09:33;;;;;;;10.30;9.40;;;21.60;99.90;;;;;;5046419;28;20662;-82
2022/07/21 06:12:00;;;;;;;12.03;10.03;;;21.70;99.90;;;;;;5052504;28;21210;-82
2022/07/21 06:14:27;;;;;;;10.83;9.77;;;21.60;99.90;;;;;;5030560;28;20650;-82
2022/07/21 06:16:54;;;;;;;10.67;9.77;;;21.50;99.90;;;;;;5030237;28;20621;-82
2022/07/21 06:19:21;;;;;;;11.67;9.90;;;21.60;99.90;;;;;;5046349;28;20629;-81
2022/07/21 06:21:48;;;;;;;13.40;12.43;;;21.60;99.90;;;;;;5047647;28;20622;-82
2022/07/21 06:24:15;;;;;;;12.30;11.40;;;21.80;99.90;;;;;;5042388;28;20612;-82
2022/07/21 06:26:43;;;;;;;11.23;10.17;;;21.80;99.90;;;;;;5043427;28;21207;-82
2022/07/21 06:29:10;;;;;;;11.77;10.70;;;21.90;99.90;;;;;;5049230;28;20616;-82
2022/07/21 06:31:37;;;;;;;12.33;11.30;;;21.90;99.90;;;;;;5046240;28;20629;-82
2022/07/21 06:34:04;;;;;;;13.60;10.30;;;22.10;99.90;;;;;;5046602;28;20670;-83
2022/07/21 06:36:31;;;;;;;12.23;11.23;;;22.20;99.90;;;;;;5048212;28;20644;-82
2022/07/21 06:38:58;;;;;;;10.57;9.47;;;22.30;99.90;;;;;;5047106;28;21211;-83
2022/07/21 06:41:24;;;;;;;10.43;9.53;;;22.40;99.90;;;;;;5047266;28;20660;-82
2022/07/21 06:43:53;;;;;;;8.67;8.07;;;22.50;99.90;;;;;;5046668;28;20640;-82
2022/07/21 06:46:19;;;;;;;9.97;9.10;;;22.70;99.90;;;;;;5046039;28;20629;-82
2022/07/21 06:48:46;;;;;;;8.30;7.70;;;22.80;99.90;;;;;;5046067;28;20641;-82
2022/07/21 06:51:13;;;;;;;10.37;9.23;;;22.90;99.90;;;;;;5048440;28;20653;-82
2022/07/21 06:53:42;;;;;;;10.17;9.33;;;22.90;99.90;;;;;;5044514;28;20644;-82
2022/07/21 06:56:09;;;;;;;8.90;8.20;;;22.90;99.90;;;;;;5050539;28;20708;-82
2022/07/21 06:58:36;;;;;;;9.57;8.13;;;22.90;99.90;;;;;;5046674;28;20756;-83
2022/07/21 07:01:04;;;;;;;8.87;8.17;;;22.90;99.90;;;;;;5050070;28;20654;-82
2022/07/21 07:03:32;;;;;;;9.10;8.30;;;22.90;99.90;;;;;;5056532;28;20630;-82
2022/07/21 07:05:59;;;;;;;8.03;7.40;;;22.80;99.90;;;;;;5049276;28;20622;-82
2022/07/21 07:08:26;;;;;;;7.27;6.67;;;22.90;99.90;;;;;;5053866;28;21169;-82
2022/07/21 07:10:53;;;;;;;8.77;8.00;;;22.90;99.90;;;;;;5050072;28;20657;-82
2022/07/21 07:13:20;;;;;;;8.40;7.70;;;23.00;99.90;;;;;;5048759;28;20618;-82
2022/07/21 07:15:47;;;;;;;8.70;8.00;;;23.00;99.90;;;;;;5048689;28;21356;-83
2022/07/21 07:18:15;;;;;;;9.07;8.20;;;23.10;99.90;;;;;;5044614;28;20638;-82
2022/07/21 07:20:42;;;;;;;9.00;8.10;;;23.10;99.90;;;;;;5042998;28;20647;-82
2022/07/21 07:23:10;;;;;;;8.13;7.43;;;23.10;99.90;;;;;;5046653;28;21051;-83
2022/07/21 07:25:45;;;;;;;8.00;7.30;;;23.20;99.90;;;;;;5046296;28;20630;-82
2022/07/21 07:28:13;;;;;;;8.40;7.70;;;23.20;99.90;;;;;;5026933;28;21254;-83
2022/07/21 07:30:39;;;;;;;9.17;8.47;;;23.20;99.90;;;;;;5045406;28;21217;-82
2022/07/21 07:33:06;;;;;;;7.93;7.23;;;23.30;99.90;;;;;;5049660;28;20703;-82
2022/07/21 07:35:35;;;;;;;8.30;7.67;;;23.40;99.90;;;;;;5043171;28;20665;-82
2022/07/21 07:38:02;;;;;;;7.57;6.97;;;23.50;99.90;;;;;;5044354;28;20695;-82
2022/07/21 07:40:29;;;;;;;6.80;6.27;;;23.50;99.90;;;;;;5040391;28;20668;-82
2022/07/21 07:42:56;;;;;;;8.00;7.30;;;23.60;99.90;;;;;;5039934;28;20630;-82
2022/07/21 07:45:23;;;;;;;7.70;7.10;;;23.70;99.90;;;;;;5044531;28;20622;-82
2022/07/21 07:47:50;;;;;;;7.67;7.07;;;23.70;99.90;;;;;;5043154;28;20744;-82
2022/07/21 07:50:17;;;;;;;9.83;7.60;;;23.90;99.90;;;;;;5039209;28;21082;-82
2022/07/21 07:52:46;;;;;;;7.70;7.10;;;24.00;99.90;;;;;;5042350;28;21055;-83
2022/07/21 07:55:13;;;;;;;7.80;7.20;;;24.10;99.90;;;;;;5044620;28;20692;-82
2022/07/21 07:57:42;;;;;;;7.47;6.97;;;24.20;99.90;;;;;;5043458;28;20649;-82
2022/07/21 08:00:11;;;;;;;7.33;6.73;;;24.40;99.90;;;;;;5047431;28;20650;-82
2022/07/21 08:02:38;;;;;;;7.63;7.00;;;24.40;99.90;;;;;;5047488;28;20640;-82
2022/07/21 08:05:06;;;;;;;6.67;6.27;;;24.50;99.90;;;;;;5047023;28;20626;-83
2022/07/21 08:07:33;;;;;;;7.53;6.83;;;24.50;99.90;;;;;;5047007;28;20713;-82
2022/07/21 08:10:01;;;;;;;8.40;7.40;;;24.50;99.90;;;;;;5047259;28;20649;-82
2022/07/21 08:12:28;;;;;;;7.20;6.70;;;24.60;99.90;;;;;;5046544;28;20633;-82
2022/07/21 08:14:55;;;;;;;8.10;7.40;;;24.70;99.90;;;;;;5045234;28;20665;-82
2022/07/21 08:17:22;;;;;;;8.20;7.50;;;24.90;99.90;;;;;;5047261;28;21433;-82
2022/07/21 08:19:48;;;;;;;7.90;7.20;;;24.90;99.90;;;;;;5044433;28;20668;-83
2022/07/21 08:22:16;;;;;;;8.83;8.03;;;25.00;99.90;;;;;;5045962;28;20632;-83
2022/07/21 08:24:42;;;;;;;7.80;7.30;;;25.00;99.90;;;;;;5045053;28;20859;-83
2022/07/21 08:27:11;;;;;;;7.43;6.80;;;25.10;99.90;;;;;;5043541;28;20632;-82
2022/07/21 08:29:37;;;;;;;8.00;7.30;;;25.10;99.90;;;;;;5045909;28;20661;-83
2022/07/21 08:32:05;;;;;;;6.67;6.27;;;25.10;99.90;;;;;;5040936;28;20622;-82
2022/07/21 08:34:32;;;;;;;8.07;7.33;;;24.90;99.90;;;;;;5045048;28;20668;-83
2022/07/21 08:36:59;;;;;;;7.60;7.00;;;24.80;99.90;;;;;;5044963;28;20630;-82
2022/07/21 08:39:25;;;;;;;6.70;6.10;;;25.00;99.90;;;;;;5042962;28;20630;-82
2022/07/21 08:41:52;;;;;;;7.87;7.10;;;25.00;99.90;;;;;;5038074;28;20653;-82
2022/07/21 08:44:21;;;;;;;8.73;8.13;;;24.90;99.90;;;;;;5047792;28;20625;-81
2022/07/21 08:46:51;;;;;;;8.33;7.63;;;24.90;99.90;;;;;;5046573;28;21253;-82
2022/07/21 08:49:21;;;;;;;7.23;6.67;;;24.80;99.90;;;;;;5046109;28;20630;-82
2022/07/21 08:51:48;;;;;;;9.00;8.20;;;24.80;99.90;;;;;;5044040;28;20633;-82
2022/07/21 08:54:15;;;;;;;8.07;7.47;;;25.00;99.90;;;;;;5041741;28;20642;-83
2022/07/21 08:56:42;;;;;;;8.00;7.40;;;25.00;99.90;;;;;;5044684;28;21105;-82
2022/07/21 08:59:09;;;;;;;7.77;7.23;;;25.10;99.90;;;;;;5043015;28;20622;-81
2022/07/21 09:01:37;;;;;;;8.70;7.50;;;25.30;99.90;;;;;;5047428;28;20657;-82
2022/07/21 09:04:25;;;;;;;7.87;7.30;;;25.70;99.90;;;;;;5043779;28;20717;-82
2022/07/21 09:06:55;;;;;;;7.47;6.87;;;25.80;99.90;;;;;;5040023;28;20618;-82
2022/07/21 09:09:22;;;;;;;7.53;7.03;;;25.90;99.90;;;;;;5044435;28;21209;-82
2022/07/21 09:11:50;;;;;;;8.33;7.67;;;26.10;99.90;;;;;;5045337;28;20637;-82
2022/07/21 09:14:21;;;;;;;8.33;7.60;;;26.10;99.90;;;;;;5046071;28;20625;-82
2022/07/21 09:16:51;;;;;;;7.37;6.77;;;26.10;99.90;;;;;;5048470;28;20659;-82
2022/07/21 09:19:21;;;;;;;9.53;7.27;;;26.00;99.90;;;;;;5042888;28;20706;-82
2022/07/21 09:21:49;;;;;;;8.30;7.70;;;26.00;99.90;;;;;;5045703;28;20642;-82
2022/07/21 09:24:18;;;;;;;6.90;6.30;;;25.90;99.90;;;;;;5037890;28;21028;-82
2022/07/21 09:27:13;;;;;;;6.80;6.30;;;25.90;99.90;;;;;;5041537;28;20646;-82
2022/07/21 09:29:46;;;;;;;7.47;6.87;;;26.00;99.90;;;;;;5018460;28;21040;-82
2022/07/21 09:32:21;;;;;;;5.90;5.40;;;26.10;99.90;;;;;;5040117;28;20614;-82
2022/07/21 09:34:51;;;;;;;6.00;5.60;;;26.20;99.90;;;;;;5043264;28;20653;-82
2022/07/21 09:37:20;;;;;;;6.50;6.00;;;26.20;99.80;;;;;;5041926;28;20622;-82
2022/07/21 09:39:49;;;;;;;5.90;5.47;;;26.30;99.50;;;;;;5040572;28;20672;-82
2022/07/21 09:42:19;;;;;;;5.90;5.50;;;26.20;99.30;;;;;;5043666;28;20618;-82
2022/07/21 09:44:47;;;;;;;6.40;6.00;;;26.30;99.90;;;;;;5042018;28;20621;-82
2022/07/21 09:47:16;;;;;;;6.37;5.90;;;26.40;99.20;;;;;;5044236;28;21203;-82
2022/07/21 09:49:44;;;;;;;6.77;6.17;;;26.40;98.40;;;;;;5046054;28;20666;-82
2022/07/21 09:52:30;;;;;;;6.10;5.73;;;26.50;97.50;;;;;;5043750;28;20638;-82
2022/07/21 09:55:03;;;;;;;5.50;5.10;;;26.50;97.40;;;;;;5043257;28;20730;-82
2022/07/21 09:57:31;;;;;;;6.10;5.60;;;26.60;96.80;;;;;;5044694;28;20626;-81
2022/07/21 09:59:58;;;;;;;5.43;5.13;;;26.70;97.00;;;;;;5048242;28;20663;-82
2022/07/21 10:02:27;;;;;;;6.20;5.80;;;26.80;96.60;;;;;;5048716;28;20625;-82
2022/07/21 10:05:04;;;;;;;6.10;5.60;;;26.90;94.90;;;;;;5047268;28;20636;-81
2022/07/21 10:07:33;;;;;;;6.03;5.50;;;26.90;95.30;;;;;;5048516;28;20640;-81
2022/07/21 10:10:00;;;;;;;5.80;5.40;;;26.90;94.20;;;;;;5046867;28;20688;-80
2022/07/21 10:12:28;;;;;;;5.33;4.93;;;26.90;95.40;;;;;;5049170;28;20656;-82
2022/07/21 10:14:56;;;;;;;6.47;5.97;;;27.10;96.00;;;;;;5042879;28;20679;-82
2022/07/21 10:17:25;;;;;;;5.50;5.10;;;27.20;94.20;;;;;;5044318;28;20630;-83
2022/07/21 10:20:07;;;;;;;5.70;5.30;;;27.30;93.70;;;;;;5042972;28;21084;-82
2022/07/21 10:22:49;;;;;;;5.73;5.33;;;27.20;92.40;;;;;;5045652;28;20662;-82
2022/07/21 10:25:17;;;;;;;9.23;5.67;;;27.20;91.80;;;;;;5044840;28;21189;-82
2022/07/21 10:28:13;;;;;;;6.13;5.73;;;27.20;92.10;;;;;;5044869;28;20614;-82
2022/07/21 10:30:41;;;;;;;4.60;4.30;;;27.30;91.40;;;;;;5044287;28;21473;-83
2022/07/21 10:33:10;;;;;;;5.00;4.70;;;27.30;90.30;;;;;;5043233;28;20636;-81
2022/07/21 10:35:42;;;;;;;5.97;5.57;;;27.20;91.10;;;;;;5040514;28;21113;-80
2022/07/21 10:38:27;;;;;;;5.70;5.30;;;27.30;91.90;;;;;;5044359;28;20628;-81
2022/07/21 10:40:54;;;;;;;5.70;5.30;;;27.30;92.20;;;;;;5042177;28;20662;-83
2022/07/21 10:43:42;;;;;;;5.70;5.30;;;27.30;92.00;;;;;;5046488;28;20630;-81
2022/07/21 10:46:38;;;;;;;14.40;4.70;;;27.60;90.70;;;;;;5043349;28;20635;-83
2022/07/21 10:49:06;;;;;;;4.50;4.20;;;27.90;86.10;;;;;;5044867;28;20610;-83
2022/07/21 10:51:36;;;;;;;4.40;4.10;;;28.10;83.00;;;;;;5045244;28;20656;-82
2022/07/21 10:54:23;;;;;;;4.73;4.23;;;28.20;81.60;;;;;;5043713;28;20676;-82
2022/07/21 10:57:29;;;;;;;4.43;4.03;;;28.20;80.20;;;;;;5043945;28;20660;-81
2022/07/21 11:00:23;;;;;;;4.47;4.17;;;28.40;78.50;;;;;;5045831;28;20657;-82
2022/07/21 11:02:53;;;;;;;5.00;4.60;;;28.80;76.90;;;;;;5044106;28;20637;-82
2022/07/21 11:05:20;;;;;;;6.13;5.30;;;29.00;79.90;;;;;;5043649;28;20642;-82
2022/07/21 11:08:13;;;;;;;5.97;5.63;;;29.00;81.70;;;;;;5045664;28;20637;-82
2022/07/21 11:10:42;;;;;;;5.70;5.30;;;29.20;84.60;;;;;;5041601;28;20657;-82
2022/07/21 11:13:09;;;;;;;6.17;5.67;;;29.50;84.20;;;;;;5045527;28;21340;-82
2022/07/21 11:15:48;;;;;;;5.60;5.10;;;29.60;84.30;;;;;;5044144;28;20757;-82
2022/07/21 11:18:18;;;;;;;6.37;5.80;;;29.70;83.90;;;;;;5042920;28;20634;-82
2022/07/21 11:20:58;;;;;;;6.27;5.80;;;29.80;86.40;;;;;;5045271;28;20657;-83
2022/07/21 11:23:37;;;;;;;6.60;6.00;;;30.00;83.50;;;;;;5044415;28;20626;-82
2022/07/21 11:26:04;;;;;;;5.30;5.00;;;30.40;81.50;;;;;;5041785;28;21171;-82
2022/07/21 11:28:31;;;;;;;6.50;5.57;;;30.80;81.40;;;;;;5045993;28;20626;-82
2022/07/21 11:31:11;;;;;;;5.47;5.07;;;31.20;78.00;;;;;;5042186;28;20657;-82
2022/07/21 11:33:39;;;;;;;5.70;5.30;;;31.30;69.50;;;;;;5045322;28;21207;-83
2022/07/21 11:36:07;;;;;;;5.67;5.27;;;31.50;70.80;;;;;;5042941;28;20679;-82
2022/07/21 11:38:35;;;;;;;5.30;4.90;;;31.60;73.50;;;;;;5046049;28;20621;-82
2022/07/21 11:41:19;;;;;;;4.80;4.40;;;31.20;65.50;;;;;;5044755;28;20664;-82
2022/07/21 11:43:47;;;;;;;6.27;4.97;;;30.50;63.50;;;;;;5046453;28;20652;-82
2022/07/21 11:46:14;;;;;;;5.10;4.60;;;30.60;66.30;;;;;;5044574;28;20622;-82
2022/07/21 11:48:41;;;;;;;5.73;5.33;;;30.60;68.60;;;;;;5043948;28;20644;-82
2022/07/21 11:51:09;;;;;;;5.40;5.00;;;30.60;69.50;;;;;;5045196;28;21342;-82
2022/07/21 11:53:43;;;;;;;6.50;6.00;;;30.60;71.80;;;;;;5044564;28;20633;-82
2022/07/21 11:56:14;;;;;;;6.00;5.60;;;30.90;72.20;;;;;;5047066;28;20671;-82
2022/07/21 11:58:41;;;;;;;6.00;5.50;;;31.10;70.70;;;;;;5046390;28;20633;-82
2022/07/21 12:01:09;;;;;;;6.37;5.87;;;31.50;73.70;;;;;;5045118;28;20654;-82
2022/07/21 12:03:47;;;;;;;5.90;5.30;;;32.00;73.20;;;;;;5046750;28;20644;-82
2022/07/21 12:06:15;;;;;;;5.67;5.27;;;32.60;67.60;;;;;;5042340;28;20630;-82
2022/07/21 12:08:44;;;;;;;5.23;4.90;;;32.50;63.30;;;;;;5044485;28;20622;-82
2022/07/21 12:11:12;;;;;;;7.60;5.93;;;32.60;65.70;;;;;;5045918;28;20648;-83
2022/07/21 12:13:55;;;;;;;5.70;5.20;;;32.90;66.30;;;;;;5043678;28;20621;-83
2022/07/21 12:16:22;;;;;;;5.20;4.80;;;33.40;64.20;;;;;;5036984;28;21041;-83
2022/07/21 12:18:50;;;;;;;5.70;4.80;;;33.90;59.40;;;;;;5039806;28;20625;-84
2022/07/21 12:21:17;;;;;;;5.03;4.63;;;34.20;59.50;;;;;;5043968;28;20661;-83
2022/07/21 12:23:46;;;;;;;5.80;5.40;;;34.40;56.50;;;;;;5042719;28;20637;-83
2022/07/21 12:26:22;;;;;;;4.60;4.30;;;34.40;56.80;;;;;;5043005;28;20684;-83
2022/07/21 12:28:52;;;;;;;5.17;4.70;;;34.70;55.30;;;;;;5043006;28;20652;-84
2022/07/21 12:31:21;;;;;;;4.67;4.27;;;34.40;54.60;;;;;;5041081;28;20716;-83
2022/07/21 12:33:48;;;;;;;4.13;3.77;;;33.90;55.90;;;;;;5044534;28;20625;-83
2022/07/21 12:36:15;;;;;;;4.20;3.90;;;33.80;56.10;;;;;;5040773;28;20657;-83
2022/07/21 12:38:45;;;;;;;4.90;4.53;;;33.50;56.00;;;;;;5046119;28;20636;-83
2022/07/21 12:41:15;;;;;;;5.90;5.50;;;33.50;56.60;;;;;;5042760;28;20816;-84
2022/07/21 12:43:57;;;;;;;4.83;4.43;;;33.70;55.70;;;;;;5044616;28;20617;-83
2022/07/21 12:46:30;;;;;;;5.27;4.87;;;33.50;56.00;;;;;;5022336;28;20635;-84
2022/07/21 12:49:04;;;;;;;7.43;4.57;;;33.70;56.20;;;;;;5041076;28;20640;-84
2022/07/21 12:51:33;;;;;;;5.20;4.80;;;34.20;56.20;;;;;;5043016;28;20661;-84